Time;durP1;ratioP1;P1;durP2;ratioP2;P2;SDS_P1;SDS_P2;PMS_P1;PMS_P2;Temp;Humidity;BMP_temperature;BMP_pressure;BME280_temperature;BME280_humidity;BME280_pressure;Samples;Min_cycle;Max_cycle;Signal;HPM_P1;HPM_P2
2023/01/11 00:00:17;;;;;;;3.28;1.20;;;4.00;99.90;;;;;;5085109;28;20075;-64
2023/01/11 00:02:44;;;;;;;7.35;1.55;;;4.00;99.90;;;;;;5081569;28;20112;-65
2023/01/11 00:05:11;;;;;;;4.07;1.45;;;4.00;99.90;;;;;;5086066;28;20498;-63
2023/01/11 00:07:37;;;;;;;5.18;1.45;;;4.10;99.90;;;;;;5086179;28;20460;-64
2023/01/11 00:10:04;;;;;;;3.17;1.23;;;4.10;99.90;;;;;;5085887;28;20047;-65
2023/01/11 00:12:30;;;;;;;6.85;1.35;;;4.10;99.90;;;;;;5084864;28;20032;-65
2023/01/11 00:14:55;;;;;;;4.32;1.00;;;4.20;99.90;;;;;;5086320;28;20500;-65
2023/01/11 00:17:21;;;;;;;5.03;1.05;;;4.20;99.90;;;;;;5084957;28;20032;-65
2023/01/11 00:19:47;;;;;;;8.88;1.42;;;4.20;99.90;;;;;;5089321;28;20483;-64
2023/01/11 00:22:13;;;;;;;6.90;1.23;;;4.30;99.90;;;;;;5079682;28;20589;-65
2023/01/11 00:24:38;;;;;;;5.75;1.35;;;4.30;99.90;;;;;;5083872;28;20036;-64
2023/01/11 00:27:04;;;;;;;10.50;1.60;;;4.30;99.90;;;;;;5083327;28;20052;-68
2023/01/11 00:29:30;;;;;;;4.82;1.05;;;4.30;99.90;;;;;;5083139;28;20047;-64
2023/01/11 00:31:55;;;;;;;3.30;1.40;;;4.40;99.90;;;;;;5090605;28;20028;-64
2023/01/11 00:34:21;;;;;;;6.00;1.38;;;4.40;99.90;;;;;;5086570;28;20106;-66
2023/01/11 00:36:47;;;;;;;10.52;1.38;;;4.40;99.90;;;;;;5090756;28;20024;-64
2023/01/11 00:39:12;;;;;;;7.00;1.30;;;4.50;99.90;;;;;;5085617;28;20050;-64
2023/01/11 00:49:57;;;;;;;2.15;1.02;;;4.60;99.90;;;;;;5107568;28;20050;-63
2023/01/11 00:52:23;;;;;;;3.55;1.00;;;4.60;99.90;;;;;;5071272;28;20033;-67
2023/01/11 00:54:49;;;;;;;8.75;1.60;;;4.50;99.90;;;;;;5075407;28;20031;-64
2023/01/11 00:57:14;;;;;;;5.35;1.40;;;4.50;99.90;;;;;;5078754;28;20515;-65
2023/01/11 00:59:40;;;;;;;5.13;1.10;;;4.50;99.90;;;;;;5088059;28;20115;-64
2023/01/11 01:02:07;;;;;;;7.63;1.75;;;4.50;99.90;;;;;;5091118;28;20036;-64
2023/01/11 01:04:32;;;;;;;3.75;1.20;;;4.50;99.90;;;;;;5090317;28;20032;-64
2023/01/11 01:06:58;;;;;;;5.25;1.20;;;4.60;99.90;;;;;;5090248;28;20462;-64
2023/01/11 01:09:24;;;;;;;5.75;1.02;;;4.70;99.90;;;;;;5089308;28;20158;-66
2023/01/11 01:11:49;;;;;;;3.70;1.38;;;4.70;99.90;;;;;;5079858;28;20040;-64
2023/01/11 01:14:24;;;;;;;5.03;1.77;;;4.80;99.90;;;;;;5089952;28;20115;-65
2023/01/11 01:16:51;;;;;;;5.35;1.27;;;4.80;99.90;;;;;;5088717;28;20024;-64
2023/01/11 01:19:17;;;;;;;4.15;1.75;;;4.70;99.90;;;;;;5090085;28;20461;-64
2023/01/11 01:21:43;;;;;;;5.47;1.30;;;4.60;99.90;;;;;;5091191;28;20091;-64
2023/01/11 01:24:09;;;;;;;4.28;1.40;;;4.60;99.90;;;;;;5090281;28;20092;-65
2023/01/11 01:26:35;;;;;;;5.15;1.35;;;4.60;99.90;;;;;;5078923;28;20020;-64
2023/01/11 01:29:01;;;;;;;3.80;1.48;;;4.60;99.90;;;;;;5094880;28;20145;-65
2023/01/11 01:31:27;;;;;;;4.78;1.30;;;4.70;99.90;;;;;;5081088;28;20806;-68
2023/01/11 01:33:53;;;;;;;9.10;1.45;;;4.70;99.90;;;;;;5085750;28;20358;-64
2023/01/11 01:36:18;;;;;;;5.75;1.27;;;4.80;99.90;;;;;;5090477;28;20417;-63
2023/01/11 01:38:44;;;;;;;4.85;1.25;;;4.80;99.90;;;;;;5085778;28;20381;-65
2023/01/11 01:41:12;;;;;;;2.80;1.20;;;4.90;99.90;;;;;;5083357;28;20016;-65
2023/01/11 01:43:47;;;;;;;3.85;1.20;;;4.90;99.90;;;;;;5078341;28;20052;-64
2023/01/11 01:46:13;;;;;;;4.43;0.93;;;4.90;99.90;;;;;;5076559;28;20377;-66
2023/01/11 01:48:42;;;;;;;3.40;1.20;;;5.00;99.90;;;;;;5079849;28;20468;-65
2023/01/11 01:51:13;;;;;;;2.95;1.13;;;5.00;99.90;;;;;;5091291;28;20023;-64
2023/01/11 01:53:45;;;;;;;7.40;1.10;;;5.00;99.90;;;;;;5097922;28;20015;-64
2023/01/11 01:56:22;;;;;;;5.28;1.30;;;5.00;99.90;;;;;;5087742;28;20028;-64
2023/01/11 01:58:51;;;;;;;2.53;0.98;;;5.00;99.90;;;;;;5087586;28;20051;-66
2023/01/11 02:04:07;;;;;;;3.92;1.10;;;5.00;99.90;;;;;;5088097;28;20709;-65
2023/01/11 02:06:33;;;;;;;3.30;1.10;;;5.10;99.90;;;;;;5094900;28;20035;-65
2023/01/11 02:09:06;;;;;;;2.58;0.90;;;5.10;99.90;;;;;;5090072;28;20090;-65
2023/01/11 02:11:33;;;;;;;8.93;1.20;;;5.10;99.90;;;;;;5087821;28;20365;-66
2023/01/11 02:14:02;;;;;;;4.22;1.08;;;5.20;99.90;;;;;;5095616;28;20024;-65
2023/01/11 02:16:28;;;;;;;5.10;1.20;;;5.30;99.90;;;;;;5085041;28;20040;-68
2023/01/11 02:18:56;;;;;;;3.92;0.95;;;5.20;99.90;;;;;;5087166;28;20039;-64
2023/01/11 02:21:43;;;;;;;2.38;1.08;;;5.30;99.90;;;;;;5088151;28;20051;-65
2023/01/11 02:24:56;;;;;;;3.47;0.98;;;5.40;99.90;;;;;;5080487;28;20097;-63
2023/01/11 02:27:59;;;;;;;4.60;1.35;;;5.40;99.90;;;;;;5048164;28;20040;-64
2023/01/11 02:30:33;;;;;;;4.35;1.30;;;5.40;99.90;;;;;;5094418;28;20030;-64
2023/01/11 02:33:19;;;;;;;5.00;1.20;;;5.40;99.90;;;;;;5086730;28;20480;-64
2023/01/11 02:36:03;;;;;;;3.70;0.90;;;5.30;99.90;;;;;;5083665;28;20039;-62
2023/01/11 02:38:42;;;;;;;2.15;1.08;;;5.30;99.90;;;;;;5083142;28;20515;-67
2023/01/11 02:47:36;;;;;;;2.67;1.00;;;5.00;99.90;;;;;;5083728;28;20063;-63
2023/01/11 02:50:29;;;;;;;2.53;1.00;;;5.00;99.90;;;;;;5085390;28;20118;-62
2023/01/11 02:53:06;;;;;;;4.78;1.13;;;4.90;99.90;;;;;;5086184;28;20060;-64
2023/01/11 02:55:38;;;;;;;3.30;1.10;;;4.90;99.90;;;;;;5076916;28;20024;-65
2023/01/11 02:58:07;;;;;;;3.10;1.05;;;4.90;99.90;;;;;;5081496;28;20047;-64
2023/01/11 03:00:36;;;;;;;5.30;1.10;;;4.90;99.90;;;;;;5088411;28;20043;-68
2023/01/11 03:03:15;;;;;;;4.82;0.90;;;4.80;99.90;;;;;;5070767;28;20038;-64
2023/01/11 03:05:52;;;;;;;3.45;1.17;;;4.80;99.90;;;;;;5075651;28;20363;-64
2023/01/11 03:08:29;;;;;;;3.55;1.17;;;4.80;99.90;;;;;;5082649;28;20040;-64
2023/01/11 03:11:06;;;;;;;1.75;0.73;;;4.70;99.90;;;;;;5081742;28;20613;-63
2023/01/11 03:14:00;;;;;;;3.10;1.00;;;4.70;99.90;;;;;;5085992;28;20067;-68
2023/01/11 03:17:14;;;;;;;3.83;0.90;;;4.70;99.90;;;;;;5076049;28;20047;-65
2023/01/11 03:19:55;;;;;;;3.72;1.08;;;4.70;99.90;;;;;;4979654;28;20038;-63
2023/01/11 03:22:36;;;;;;;4.43;0.82;;;4.70;99.90;;;;;;5081894;28;20036;-65
2023/01/11 03:25:33;;;;;;;4.15;1.23;;;4.80;99.90;;;;;;5079034;28;20035;-65
2023/01/11 03:28:16;;;;;;;5.75;1.00;;;4.80;99.90;;;;;;5039246;28;20052;-64
2023/01/11 03:30:48;;;;;;;4.22;0.98;;;4.80;99.90;;;;;;5071905;28;20028;-66
2023/01/11 03:33:26;;;;;;;2.03;0.90;;;4.70;99.90;;;;;;5079798;28;20476;-65
2023/01/11 03:36:02;;;;;;;1.17;0.75;;;4.70;99.90;;;;;;5075388;28;20043;-65
2023/01/11 03:38:39;;;;;;;2.85;0.75;;;4.70;99.90;;;;;;5076160;28;20029;-68
2023/01/11 03:41:11;;;;;;;4.28;0.98;;;4.70;99.90;;;;;;5076973;28;20033;-64
2023/01/11 03:43:39;;;;;;;2.47;0.93;;;4.70;99.90;;;;;;5084807;28;20097;-67
2023/01/11 03:46:25;;;;;;;6.75;1.38;;;4.70;99.90;;;;;;5077592;28;20078;-65
2023/01/11 03:49:03;;;;;;;7.40;1.33;;;4.80;99.90;;;;;;5083347;28;20071;-63
2023/01/11 03:51:37;;;;;;;5.20;1.10;;;4.80;99.90;;;;;;5090860;28;20074;-63
2023/01/11 03:54:07;;;;;;;2.55;1.13;;;4.90;99.90;;;;;;5085479;28;20040;-64
2023/01/11 03:56:41;;;;;;;4.33;1.27;;;4.90;99.90;;;;;;5084647;28;20036;-66
2023/01/11 03:59:07;;;;;;;2.88;1.05;;;5.00;99.90;;;;;;5072344;28;20044;-63
2023/01/11 04:01:33;;;;;;;4.45;1.27;;;5.00;99.90;;;;;;5079078;28;20495;-65
2023/01/11 04:03:58;;;;;;;4.38;1.25;;;5.00;99.90;;;;;;5088406;28;20075;-64
2023/01/11 04:06:24;;;;;;;4.07;1.30;;;5.00;99.90;;;;;;5091342;28;20036;-67
2023/01/11 04:08:50;;;;;;;4.32;1.02;;;5.00;99.90;;;;;;5091719;28;20032;-64
2023/01/11 04:11:15;;;;;;;2.75;1.17;;;5.00;99.90;;;;;;5091835;28;20149;-65
2023/01/11 04:13:41;;;;;;;2.45;1.20;;;4.90;99.90;;;;;;5080675;28;20024;-64
2023/01/11 04:16:07;;;;;;;6.38;1.50;;;4.90;99.90;;;;;;5093806;28;20519;-66
2023/01/11 04:18:32;;;;;;;4.70;1.40;;;4.80;99.90;;;;;;5089074;28;20105;-65
2023/01/11 04:20:58;;;;;;;3.58;1.23;;;4.90;99.90;;;;;;5090732;28;20052;-64
2023/01/11 04:23:24;;;;;;;3.13;1.50;;;4.90;99.90;;;;;;5090288;28;20113;-64
2023/01/11 04:25:50;;;;;;;3.92;1.40;;;4.90;99.90;;;;;;5088432;28;20024;-64
2023/01/11 04:28:16;;;;;;;5.35;1.55;;;4.80;99.90;;;;;;5090381;28;20079;-64
2023/01/11 04:30:41;;;;;;;4.70;1.70;;;4.80;99.90;;;;;;5073376;28;20055;-66
2023/01/11 04:33:07;;;;;;;3.28;1.10;;;4.80;99.90;;;;;;5091312;28;20032;-65
2023/01/11 04:35:32;;;;;;;4.45;1.85;;;4.80;99.90;;;;;;5089618;28;20032;-64
2023/01/11 04:37:58;;;;;;;4.68;1.55;;;4.80;99.90;;;;;;5083694;28;20039;-65
2023/01/11 04:40:24;;;;;;;2.47;1.30;;;4.80;99.90;;;;;;5087095;28;20051;-64
2023/01/11 04:42:49;;;;;;;2.78;1.35;;;4.80;99.90;;;;;;5082504;28;20035;-63
2023/01/11 04:45:15;;;;;;;3.20;1.63;;;4.90;99.90;;;;;;5086642;28;20101;-64
2023/01/11 04:47:41;;;;;;;5.00;1.85;;;4.90;99.90;;;;;;5089235;28;20174;-68
2023/01/11 04:50:07;;;;;;;8.43;2.90;;;4.90;99.90;;;;;;5091232;28;20088;-65
2023/01/11 04:52:33;;;;;;;6.70;2.15;;;5.00;99.90;;;;;;5090594;28;20036;-65
2023/01/11 04:54:59;;;;;;;5.38;2.08;;;5.00;99.90;;;;;;5089717;28;20135;-66
2023/01/11 04:57:25;;;;;;;4.55;1.83;;;5.00;99.90;;;;;;5094237;28;20034;-65
2023/01/11 04:59:50;;;;;;;8.15;2.10;;;5.00;99.90;;;;;;5089979;28;20536;-64
2023/01/11 05:02:16;;;;;;;4.00;1.77;;;5.00;99.90;;;;;;5070393;28;20492;-64
2023/01/11 05:04:42;;;;;;;5.47;1.70;;;5.00;99.90;;;;;;5090222;28;20036;-66
2023/01/11 05:07:09;;;;;;;4.75;2.00;;;5.10;99.90;;;;;;5088661;28;20461;-64
2023/01/11 05:09:35;;;;;;;3.65;1.83;;;5.10;99.90;;;;;;5090331;28;20063;-64
2023/01/11 05:12:01;;;;;;;3.13;1.73;;;5.10;99.90;;;;;;5087641;28;20618;-65
2023/01/11 05:14:27;;;;;;;6.28;2.30;;;5.20;99.90;;;;;;5086386;28;20028;-66
2023/01/11 05:16:52;;;;;;;3.85;2.08;;;5.20;99.90;;;;;;5084801;28;20068;-65
2023/01/11 05:19:18;;;;;;;5.80;2.15;;;5.10;99.90;;;;;;5090344;28;20059;-66
2023/01/11 05:21:43;;;;;;;4.93;1.98;;;5.00;99.90;;;;;;5084183;28;20028;-64
2023/01/11 05:24:14;;;;;;;5.15;2.10;;;4.90;99.90;;;;;;5090679;28;20024;-66
2023/01/11 05:26:41;;;;;;;;;;;4.80;99.90;;;;;;5087782;28;20024;-68
2023/01/11 05:29:09;;;;;;;6.15;2.38;;;4.80;99.90;;;;;;5089679;28;20380;-64
2023/01/11 05:31:36;;;;;;;4.88;2.20;;;4.70;99.90;;;;;;5088979;28;20017;-67
2023/01/11 05:34:02;;;;;;;6.90;2.55;;;4.70;99.90;;;;;;5096754;27;20202;-65
2023/01/11 05:36:28;;;;;;;9.63;3.30;;;4.60;99.90;;;;;;5085091;28;20027;-66
2023/01/11 05:38:55;;;;;;;5.53;2.20;;;4.60;99.90;;;;;;5088269;28;20392;-66
2023/01/11 05:41:23;;;;;;;6.22;2.70;;;4.60;99.90;;;;;;5089216;28;20024;-64
2023/01/11 05:46:36;;;;;;;6.18;1.85;;;4.80;99.90;;;;;;5086295;28;20043;-65
2023/01/11 05:49:03;;;;;;;3.17;1.52;;;4.80;99.90;;;;;;5086243;28;20025;-65
2023/01/11 05:51:31;;;;;;;8.75;2.20;;;4.90;99.90;;;;;;5092774;28;20024;-68
2023/01/11 05:53:57;;;;;;;5.10;2.15;;;4.90;99.90;;;;;;5086700;28;20089;-67
2023/01/11 05:56:23;;;;;;;5.65;2.00;;;4.90;99.90;;;;;;5083269;28;20047;-66
2023/01/11 05:58:49;;;;;;;3.58;1.85;;;4.90;99.90;;;;;;5084819;28;20040;-65
2023/01/11 06:01:16;;;;;;;4.55;2.03;;;4.80;99.90;;;;;;5088409;28;20059;-64
2023/01/11 06:03:41;;;;;;;4.82;2.17;;;4.70;99.90;;;;;;5088717;28;20028;-67
2023/01/11 06:06:07;;;;;;;4.68;2.00;;;4.50;99.90;;;;;;5088999;28;20020;-64
2023/01/11 06:08:33;;;;;;;5.00;2.30;;;4.50;99.90;;;;;;5088968;28;20036;-65
2023/01/11 06:10:59;;;;;;;6.18;2.38;;;4.50;99.90;;;;;;5087573;28;20031;-66
2023/01/11 06:13:25;;;;;;;6.85;2.42;;;4.50;99.90;;;;;;5088407;28;20380;-66
2023/01/11 06:15:56;;;;;;;7.40;2.85;;;4.60;99.90;;;;;;5090505;28;20047;-64
2023/01/11 06:18:22;;;;;;;5.82;2.38;;;4.60;99.90;;;;;;5064487;28;20030;-66
2023/01/11 06:20:53;;;;;;;8.98;2.72;;;4.60;99.90;;;;;;5085956;28;20028;-66
2023/01/11 06:23:19;;;;;;;8.88;3.55;;;4.70;99.90;;;;;;5088044;28;20032;-64
2023/01/11 06:25:45;;;;;;;8.80;3.15;;;4.70;99.90;;;;;;5079287;28;20377;-66
2023/01/11 06:28:12;;;;;;;9.77;3.78;;;4.70;99.90;;;;;;5087857;28;20047;-67
2023/01/11 06:30:38;;;;;;;8.50;3.55;;;4.70;99.90;;;;;;5088095;28;20032;-65
2023/01/11 06:33:07;;;;;;;8.63;3.47;;;4.70;99.90;;;;;;5087828;28;20042;-63
2023/01/11 06:35:40;;;;;;;7.35;3.72;;;4.80;99.90;;;;;;5085982;28;20067;-66
2023/01/11 06:38:07;;;;;;;9.45;4.35;;;4.80;99.90;;;;;;5086677;28;20114;-66
2023/01/11 06:40:33;;;;;;;13.70;4.40;;;4.70;99.90;;;;;;5087985;28;20071;-66
2023/01/11 06:42:59;;;;;;;11.10;4.78;;;4.70;99.90;;;;;;5086862;28;20055;-67
2023/01/11 06:45:25;;;;;;;10.27;4.45;;;4.70;99.90;;;;;;5069863;28;20698;-65
2023/01/11 06:47:50;;;;;;;8.90;4.22;;;4.80;99.90;;;;;;5086232;28;20028;-66
2023/01/11 06:50:16;;;;;;;10.70;4.45;;;4.80;99.90;;;;;;5092784;28;20032;-66
2023/01/11 06:52:42;;;;;;;7.70;3.05;;;4.80;99.90;;;;;;5090569;28;20024;-65
2023/01/11 06:55:08;;;;;;;6.18;2.03;;;4.80;99.90;;;;;;5085419;28;20043;-66
2023/01/11 06:57:34;;;;;;;5.35;1.98;;;5.00;99.90;;;;;;5087133;28;20854;-65
2023/01/11 06:59:59;;;;;;;5.50;2.15;;;5.30;99.90;;;;;;5086663;28;20036;-65
2023/01/11 07:02:25;;;;;;;5.15;1.83;;;5.40;99.90;;;;;;5087519;28;20475;-65
2023/01/11 07:04:51;;;;;;;3.47;1.42;;;5.50;99.90;;;;;;5086289;28;20060;-66
2023/01/11 07:07:17;;;;;;;4.80;1.27;;;5.70;99.90;;;;;;5086949;28;20103;-66
2023/01/11 07:09:43;;;;;;;3.08;1.20;;;5.90;99.90;;;;;;5088277;28;20028;-66
2023/01/11 07:12:08;;;;;;;2.95;1.17;;;6.00;99.90;;;;;;5083522;28;20516;-65
2023/01/11 07:14:34;;;;;;;4.13;1.20;;;6.00;99.90;;;;;;5089579;28;20028;-65
2023/01/11 07:17:00;;;;;;;2.72;1.40;;;6.10;99.90;;;;;;5066769;28;20532;-65
2023/01/11 07:19:25;;;;;;;3.95;1.25;;;6.10;99.90;;;;;;5086709;28;20050;-65
2023/01/11 07:21:51;;;;;;;5.18;1.23;;;6.10;99.90;;;;;;5085828;28;20050;-67
2023/01/11 07:24:16;;;;;;;2.88;1.38;;;6.10;99.90;;;;;;5090305;28;20032;-66
2023/01/11 07:26:42;;;;;;;4.80;1.38;;;6.10;99.90;;;;;;5085286;28;20117;-65
2023/01/11 07:29:08;;;;;;;2.25;1.20;;;6.10;99.90;;;;;;5086525;28;20059;-66
2023/01/11 07:31:34;;;;;;;2.78;0.88;;;6.10;99.90;;;;;;5086819;28;20036;-66
2023/01/11 07:33:59;;;;;;;2.25;0.82;;;6.20;99.90;;;;;;5086587;28;20028;-66
2023/01/11 07:36:25;;;;;;;2.40;1.00;;;6.40;99.90;;;;;;5085782;28;20036;-66
2023/01/11 07:38:51;;;;;;;2.22;0.68;;;6.50;99.90;;;;;;5078804;28;20128;-68
2023/01/11 07:44:00;;;;;;;1.55;0.70;;;6.70;99.90;;;;;;5084938;28;20039;-66
2023/01/11 07:46:26;;;;;;;2.65;0.90;;;6.70;99.90;;;;;;5086489;28;20020;-66
2023/01/11 07:48:52;;;;;;;2.13;0.85;;;6.70;99.90;;;;;;5086122;28;20465;-68
2023/01/11 07:51:19;;;;;;;1.75;0.80;;;6.80;99.90;;;;;;5089774;28;20472;-66
2023/01/11 07:53:45;;;;;;;3.75;0.88;;;6.90;99.90;;;;;;5085727;28;20036;-67
2023/01/11 07:56:12;;;;;;;1.75;0.80;;;7.00;99.90;;;;;;5080195;28;20111;-65
2023/01/11 07:58:37;;;;;;;1.50;0.70;;;7.10;99.90;;;;;;5090145;28;20028;-66
2023/01/11 08:01:04;;;;;;;3.05;0.80;;;7.20;99.90;;;;;;5084464;28;20078;-67
2023/01/11 08:03:30;;;;;;;2.30;0.70;;;7.10;99.90;;;;;;5086547;28;20111;-66
2023/01/11 08:05:55;;;;;;;3.67;0.77;;;7.10;99.90;;;;;;5085409;28;20095;-66
2023/01/11 08:08:21;;;;;;;3.42;0.80;;;7.10;99.90;;;;;;5086125;28;20036;-66
2023/01/11 08:14:37;;;;;;;3.13;0.73;;;7.20;99.90;;;;;;5069055;28;20027;-63
2023/01/11 08:16:17;;;;;;;2.28;0.68;;;7.40;99.90;;;;;;5084924;28;20050;-64
2023/01/11 08:18:42;;;;;;;2.38;0.95;;;7.40;99.90;;;;;;5086900;28;20032;-63
2023/01/11 08:21:08;;;;;;;1.73;0.80;;;7.40;99.90;;;;;;5082981;28;20044;-62
2023/01/11 08:23:34;;;;;;;1.98;0.95;;;7.40;99.90;;;;;;5085118;28;20047;-64
2023/01/11 08:26:00;;;;;;;2.50;0.90;;;7.20;99.90;;;;;;5086300;28;20104;-62
2023/01/11 08:28:26;;;;;;;3.15;0.93;;;7.20;99.90;;;;;;5085282;28;20150;-62
2023/01/11 08:30:52;;;;;;;3.83;1.17;;;7.20;99.90;;;;;;5085464;28;20111;-64
2023/01/11 08:33:17;;;;;;;1.95;0.95;;;7.20;99.90;;;;;;5085455;28;20023;-64
2023/01/11 08:35:43;;;;;;;2.63;1.00;;;7.30;99.90;;;;;;5093186;28;20032;-62
2023/01/11 08:38:09;;;;;;;1.92;0.85;;;7.30;99.90;;;;;;5083091;28;20047;-63
2023/01/11 08:40:35;;;;;;;4.25;1.30;;;7.20;99.90;;;;;;5085380;28;20051;-63
2023/01/11 08:43:00;;;;;;;4.05;1.50;;;7.20;99.90;;;;;;5084946;28;20035;-63
2023/01/11 08:45:26;;;;;;;4.40;1.17;;;7.30;99.90;;;;;;5084614;28;20031;-64
2023/01/11 08:47:52;;;;;;;4.25;1.40;;;7.30;99.90;;;;;;5086450;28;20032;-63
2023/01/11 08:50:19;;;;;;;2.67;0.98;;;7.40;99.90;;;;;;5086115;28;20401;-63
2023/01/11 08:52:45;;;;;;;2.83;1.00;;;7.40;99.90;;;;;;5090009;28;20020;-65
2023/01/11 08:55:11;;;;;;;1.88;1.00;;;7.40;99.90;;;;;;5091161;28;20562;-63
2023/01/11 08:57:36;;;;;;;2.85;1.10;;;7.40;99.90;;;;;;5095145;28;20028;-64
2023/01/11 09:00:05;;;;;;;3.00;1.50;;;7.40;99.90;;;;;;5085532;28;20097;-63
2023/01/11 09:02:30;;;;;;;2.40;1.33;;;7.40;99.90;;;;;;5087349;28;20036;-63
2023/01/11 09:04:56;;;;;;;4.18;1.10;;;7.50;99.90;;;;;;5082388;28;20449;-64
2023/01/11 09:07:21;;;;;;;3.15;1.05;;;7.50;99.90;;;;;;5088819;28;20469;-64
2023/01/11 09:09:47;;;;;;;2.40;1.00;;;7.60;99.90;;;;;;5093564;28;20039;-65
2023/01/11 09:12:13;;;;;;;2.92;0.55;;;7.80;99.90;;;;;;5089494;28;20048;-64
2023/01/11 09:14:40;;;;;;;1.67;0.70;;;7.90;99.90;;;;;;5090254;28;20641;-63
2023/01/11 09:17:06;;;;;;;1.48;0.63;;;8.00;99.90;;;;;;5089423;28;20024;-64
2023/01/11 09:19:34;;;;;;;1.88;0.57;;;8.10;99.90;;;;;;5088468;28;20039;-63
2023/01/11 09:22:01;;;;;;;1.30;0.57;;;8.20;99.90;;;;;;5071012;28;20040;-63
2023/01/11 09:24:28;;;;;;;2.63;0.82;;;8.30;99.90;;;;;;5079607;28;20036;-63
2023/01/11 09:26:57;;;;;;;2.47;0.50;;;8.40;99.90;;;;;;5089072;28;20048;-63
2023/01/11 09:29:23;;;;;;;2.40;0.77;;;8.50;99.90;;;;;;5089286;28;20508;-62
2023/01/11 09:31:49;;;;;;;2.15;0.68;;;8.50;99.90;;;;;;5088490;28;20054;-64
2023/01/11 09:34:14;;;;;;;1.40;0.75;;;8.50;99.90;;;;;;5073345;28;20032;-63
2023/01/11 09:36:41;;;;;;;1.40;0.70;;;8.50;99.90;;;;;;5089042;28;20381;-63
2023/01/11 09:39:11;;;;;;;1.55;0.63;;;8.50;99.90;;;;;;5088532;28;20389;-63
2023/01/11 09:42:13;;;;;;;1.23;0.57;;;8.50;99.90;;;;;;5087511;28;20431;-62
2023/01/11 09:44:53;;;;;;;1.65;0.68;;;8.60;99.90;;;;;;5085134;28;20512;-62
2023/01/11 09:47:42;;;;;;;4.22;0.80;;;8.60;99.90;;;;;;5082759;28;20031;-62
2023/01/11 09:50:40;;;;;;;1.25;0.50;;;8.70;99.90;;;;;;5081172;28;20070;-62
2023/01/11 09:53:08;;;;;;;1.00;0.40;;;8.80;99.90;;;;;;5089243;28;20024;-62
2023/01/11 09:55:45;;;;;;;3.25;0.60;;;8.90;99.90;;;;;;5088891;28;20027;-64
2023/01/11 09:58:52;;;;;;;0.88;0.52;;;9.00;99.90;;;;;;5088506;28;20040;-64
2023/01/11 10:01:37;;;;;;;1.33;0.40;;;9.00;99.90;;;;;;5022451;28;20618;-63
2023/01/11 10:04:15;;;;;;;1.00;0.47;;;9.00;99.90;;;;;;5006444;28;20402;-62
2023/01/11 10:07:15;;;;;;;1.50;0.50;;;9.00;99.90;;;;;;5062912;28;20488;-64
2023/01/11 10:10:12;;;;;;;1.48;0.40;;;8.90;99.90;;;;;;5076789;28;20040;-63
2023/01/11 10:12:55;;;;;;;1.90;0.50;;;8.80;99.90;;;;;;5082564;28;20040;-64
2023/01/11 10:15:39;;;;;;;1.63;0.40;;;8.70;99.90;;;;;;5088995;28;20479;-63
2023/01/11 10:18:43;;;;;;;1.77;0.60;;;8.70;99.90;;;;;;5088764;28;20047;-62
2023/01/11 10:21:27;;;;;;;1.75;0.45;;;8.70;99.90;;;;;;5088431;28;20730;-64
2023/01/11 10:24:26;;;;;;;2.40;0.82;;;8.70;99.90;;;;;;5083005;28;20036;-64
2023/01/11 10:26:56;;;;;;;1.58;0.57;;;8.70;99.90;;;;;;5070099;28;20056;-64
2023/01/11 10:29:56;;;;;;;1.33;0.70;;;8.70;99.90;;;;;;5088907;28;20096;-64
2023/01/11 10:32:52;;;;;;;2.20;0.88;;;8.70;99.90;;;;;;5084959;28;20097;-64
2023/01/11 10:35:58;;;;;;;3.35;0.80;;;8.80;99.90;;;;;;5088676;28;20051;-63
2023/01/11 10:38:57;;;;;;;1.90;1.00;;;8.80;99.90;;;;;;5073606;28;20028;-64
2023/01/11 10:41:58;;;;;;;1.60;0.70;;;8.80;99.90;;;;;;5092876;28;20040;-64
2023/01/11 10:44:51;;;;;;;2.25;0.60;;;8.90;99.90;;;;;;5083718;28;20028;-65
2023/01/11 10:47:21;;;;;;;3.03;0.90;;;8.90;99.90;;;;;;5081996;28;20032;-64
2023/01/11 10:50:03;;;;;;;1.85;0.80;;;8.90;99.90;;;;;;5089045;28;20031;-63
2023/01/11 10:52:29;;;;;;;3.35;1.23;;;9.00;99.90;;;;;;5088883;28;20135;-62
2023/01/11 10:54:57;;;;;;;3.80;0.77;;;9.00;99.90;;;;;;5087695;28;20032;-63
2023/01/11 10:57:31;;;;;;;1.63;0.70;;;9.00;99.90;;;;;;5088285;28;20032;-62
2023/01/11 11:00:18;;;;;;;2.47;0.60;;;9.10;99.90;;;;;;5070430;28;20435;-64
2023/01/11 11:03:11;;;;;;;2.30;0.90;;;9.00;99.90;;;;;;5070639;28;20032;-62
2023/01/11 11:05:56;;;;;;;3.33;0.70;;;9.10;99.90;;;;;;5088922;28;20440;-64
2023/01/11 11:08:29;;;;;;;3.22;0.75;;;9.10;99.90;;;;;;5087229;28;20059;-63
2023/01/11 11:11:13;;;;;;;3.35;0.93;;;9.10;99.90;;;;;;5056917;28;20036;-63
2023/01/11 11:13:57;;;;;;;1.58;0.88;;;9.20;99.90;;;;;;5076000;28;20035;-64
2023/01/11 11:16:23;;;;;;;1.63;0.57;;;9.20;99.90;;;;;;5091971;28;20358;-64
2023/01/11 11:18:50;;;;;;;2.60;1.02;;;9.20;99.90;;;;;;5069048;28;20685;-63
2023/01/11 11:21:34;;;;;;;5.10;1.05;;;9.20;99.90;;;;;;5086534;28;20072;-64
2023/01/11 11:24:08;;;;;;;3.47;0.90;;;9.20;99.90;;;;;;5085336;28;20039;-64
2023/01/11 11:26:40;;;;;;;2.45;1.20;;;9.20;99.90;;;;;;5068319;28;20376;-62
2023/01/11 11:29:08;;;;;;;1.00;0.75;;;9.20;99.90;;;;;;5086652;28;20040;-64
2023/01/11 11:31:37;;;;;;;3.08;0.90;;;9.20;99.90;;;;;;5086401;28;20036;-64
2023/01/11 11:34:10;;;;;;;2.53;1.00;;;9.10;99.90;;;;;;5086977;28;20042;-65
2023/01/11 11:36:44;;;;;;;6.60;1.30;;;9.10;99.90;;;;;;5087002;28;20047;-63
2023/01/11 11:39:19;;;;;;;2.05;0.77;;;9.20;99.90;;;;;;5078704;28;20032;-64
2023/01/11 11:42:14;;;;;;;2.65;1.23;;;9.20;99.90;;;;;;5082028;28;20039;-64
2023/01/11 11:44:39;;;;;;;2.35;0.75;;;9.20;99.90;;;;;;5086542;28;20111;-64
2023/01/11 11:47:14;;;;;;;0.68;0.32;;;9.20;99.90;;;;;;5083876;28;20163;-65
2023/01/11 11:49:41;;;;;;;3.42;0.68;;;9.30;99.90;;;;;;5086862;28;20036;-64
2023/01/11 11:52:13;;;;;;;2.53;0.90;;;9.40;99.90;;;;;;5086340;28;20099;-64
2023/01/11 11:54:50;;;;;;;1.17;0.50;;;9.40;99.90;;;;;;5095392;28;20079;-64
2023/01/11 11:57:29;;;;;;;3.45;0.90;;;9.40;99.90;;;;;;5078824;28;20024;-64
2023/01/11 12:00:28;;;;;;;1.73;0.70;;;9.40;99.90;;;;;;5086363;28;20051;-64
2023/01/11 12:03:01;;;;;;;2.58;0.70;;;9.40;99.90;;;;;;5086981;28;20036;-64
2023/01/11 12:05:27;;;;;;;1.52;0.77;;;9.50;99.90;;;;;;5086067;28;20013;-62
2023/01/11 12:07:54;;;;;;;2.35;0.57;;;9.50;99.90;;;;;;5090105;28;20080;-64
2023/01/11 12:10:22;;;;;;;2.33;0.50;;;9.40;99.90;;;;;;5086250;28;20036;-64
2023/01/11 12:13:01;;;;;;;2.60;0.68;;;9.40;99.90;;;;;;5087590;28;20039;-64
2023/01/11 12:15:28;;;;;;;2.10;0.75;;;9.40;99.90;;;;;;5077126;28;20040;-64
2023/01/11 12:17:54;;;;;;;0.90;0.47;;;9.40;99.90;;;;;;5086868;28;20157;-64
2023/01/11 12:20:26;;;;;;;1.75;0.47;;;9.40;99.90;;;;;;5085555;28;20462;-64
2023/01/11 12:23:20;;;;;;;1.30;0.50;;;9.50;99.90;;;;;;5084511;28;20503;-63
2023/01/11 12:26:04;;;;;;;1.20;0.57;;;9.50;99.90;;;;;;5089763;28;20094;-63
2023/01/11 12:28:55;;;;;;;0.68;0.25;;;9.40;99.90;;;;;;5071436;28;20109;-63
2023/01/11 12:31:57;;;;;;;1.08;0.45;;;9.40;99.90;;;;;;5084256;28;20482;-66
2023/01/11 12:34:45;;;;;;;1.55;0.65;;;9.40;99.90;;;;;;5069200;28;20511;-69
2023/01/11 12:37:34;;;;;;;1.25;0.77;;;9.40;99.90;;;;;;5082038;28;20039;-63
2023/01/11 12:40:28;;;;;;;1.13;0.60;;;9.40;99.90;;;;;;5090497;28;20028;-63
2023/01/11 12:43:00;;;;;;;2.05;0.60;;;9.40;99.90;;;;;;5081149;28;20043;-63
2023/01/11 12:45:39;;;;;;;3.20;0.80;;;9.50;99.90;;;;;;5087936;28;20028;-64
2023/01/11 12:48:23;;;;;;;1.75;0.90;;;9.40;99.90;;;;;;5081836;28;20039;-64
2023/01/11 12:51:00;;;;;;;1.17;0.50;;;9.40;99.90;;;;;;5089150;28;20081;-66
2023/01/11 12:53:29;;;;;;;1.80;0.60;;;9.40;99.90;;;;;;5086141;28;20633;-64
2023/01/11 12:56:12;;;;;;;1.38;0.60;;;9.40;99.90;;;;;;5088648;28;20024;-64
2023/01/11 12:58:43;;;;;;;2.25;0.80;;;9.50;99.90;;;;;;5088221;28;20028;-65
2023/01/11 13:01:47;;;;;;;1.77;0.80;;;9.40;99.90;;;;;;5087220;28;20046;-67
2023/01/11 13:04:25;;;;;;;4.05;1.00;;;9.40;99.90;;;;;;5084538;28;20048;-66
2023/01/11 13:07:12;;;;;;;2.53;1.02;;;9.40;99.90;;;;;;5084201;28;20063;-67
2023/01/11 13:09:54;;;;;;;3.33;0.95;;;9.30;99.90;;;;;;5089039;28;20028;-66
2023/01/11 13:12:48;;;;;;;3.63;1.10;;;9.30;99.90;;;;;;5088930;28;20599;-66
2023/01/11 13:15:16;;;;;;;2.45;0.95;;;9.30;99.90;;;;;;5088057;28;20465;-66
2023/01/11 13:18:00;;;;;;;2.97;0.80;;;9.30;99.90;;;;;;5089382;28;20392;-66
2023/01/11 13:20:29;;;;;;;2.08;0.80;;;9.30;99.90;;;;;;5088417;28;20036;-66
2023/01/11 13:23:03;;;;;;;2.88;1.17;;;9.20;99.90;;;;;;5089730;28;20034;-66
2023/01/11 13:25:32;;;;;;;3.53;0.98;;;9.20;99.90;;;;;;5081662;28;20497;-63
2023/01/11 13:28:02;;;;;;;3.83;1.20;;;9.20;99.90;;;;;;5089348;28;20083;-64
2023/01/11 13:30:29;;;;;;;6.25;1.40;;;9.20;99.90;;;;;;5093526;28;20075;-66
2023/01/11 13:33:10;;;;;;;5.68;1.42;;;9.20;99.90;;;;;;5080685;28;20540;-66
2023/01/11 13:35:53;;;;;;;2.75;1.35;;;9.20;99.90;;;;;;5079445;28;20020;-66
2023/01/11 13:38:29;;;;;;;2.58;1.13;;;9.20;99.90;;;;;;5087110;28;20085;-64
2023/01/11 13:41:05;;;;;;;4.55;1.30;;;9.10;99.90;;;;;;5087966;28;20036;-66
2023/01/11 13:43:52;;;;;;;2.53;1.20;;;9.10;99.90;;;;;;5086214;28;20025;-64
2023/01/11 13:46:29;;;;;;;2.80;1.10;;;9.00;99.90;;;;;;5087700;28;20694;-66
2023/01/11 13:49:05;;;;;;;1.38;0.80;;;9.00;99.90;;;;;;5067163;28;20484;-65